Swiss, WV (26690)

7:29 PM EDT on September 04, 2015 (GMT -0400)
Bonnie | | Change Station
CLOSE
Current Station
Personal Weather Station
Location: Gauley Bridge, WV
Elevation: 807 ft
Nearby Weather Stations

Elev 807 ft 38.17 °N, 81.19 °W | Updated 6 seconds ago

Partly Cloudy
Partly Cloudy
82.2 °F
Feels Like 87 °F
N
1.2
Wind Variable Wind from SE
Gusts 1.3 mph

Today
High -- | Low -- °F
--% Chance of Precip.
Yesterday
High -- | Low -- °F
Precip. -- in
6:56 AM 7:49 PM
Waning Gibbous, 55% visible
Pressure 30.02 in
Visibility 10.0 miles
Clouds Scattered Clouds 4400 ft
Scattered Clouds 25000 ft
Heat Index 87 °F
Dew Point 72 °F
Humidity 71%
Rainfall 0.00 in
Snow Depth Not available.
UV 0 out of 12
Pollen 9.30 out of 12
Air Quality Not available.
Flu Activity Not available.
METAR KCRW 042254Z 03005KT 10SM SCT044 SCT250 29/18 A3005 RMK AO2 SLP166 OCNL LTG DSNT NW CB DSNT NE AND NW T02940183
Pressure 30.02 in
Visibility 10.0 miles
Clouds Scattered Clouds 4400 ft
Scattered Clouds 25000 ft
Heat Index 87 °F
Dew Point 72 °F
Humidity 71%
Rainfall 0.00 in
Snow Depth Not available.
UV 0 out of 12
Pollen 9.30 out of 12
Air Quality Not available.
Flu Activity Not available.
METAR KCRW 042254Z 03005KT 10SM SCT044 SCT250 29/18 A3005 RMK AO2 SLP166 OCNL LTG DSNT NW CB DSNT NE AND NW T02940183

10-Day Weather Forecast

×

Almanac

Astronomy

Sep. 04, 2015 Rise Set
Actual Time
Civil Twilight
Nautical Twilight
Astronomical Twilight
Moon
Length of Visible Light
Length of Day
Tomorrow will be .
, % of the Moon is Illuminated

Today's Extremes

State Highs State Lows

Community

WunderPhotos

Upload Photos

1,852,332 photos uploaded!

WunderBlogs® & News

Nearby

Air Quality

  Air Quality AQ Index Pollutant
Not available.

Snow Depth

Station Depth Elevation

Earthquake Activity

City Distance Mag. Time & Date
Minimum magnitude displayed is 2.5.

Coastal Water Temperatures

Place Temperature

Stations

Nearby Weather Stations

Station Location Temp. Windchill Dew Point Humidity Wind Precip. Elev Updated Type